sensor_id;sensor_type;location;lat;lon;timestamp;temperature;humidity
4602;DHT22;2313;48.552;9.370;2022-12-18T00:00:47;-10.90;99.90
4602;DHT22;2313;48.552;9.370;2022-12-18T00:03:16;-11.00;99.90
4602;DHT22;2313;48.552;9.370;2022-12-18T00:05:49;-10.90;99.90
4602;DHT22;2313;48.552;9.370;2022-12-18T00:08:15;-10.90;99.90
4602;DHT22;2313;48.552;9.370;2022-12-18T00:10:40;-10.90;99.90
4602;DHT22;2313;48.552;9.370;2022-12-18T00:13:06;-10.80;99.90
4602;DHT22;2313;48.552;9.370;2022-12-18T00:15:34;-10.80;99.90
4602;DHT22;2313;48.552;9.370;2022-12-18T00:18:00;-10.80;99.90
4602;DHT22;2313;48.552;9.370;2022-12-18T00:20:25;-10.70;99.90
4602;DHT22;2313;48.552;9.370;2022-12-18T00:22:54;-10.70;99.90
4602;DHT22;2313;48.552;9.370;2022-12-18T00:25:20;-10.70;99.90
4602;DHT22;2313;48.552;9.370;2022-12-18T00:27:46;-10.80;99.90
4602;DHT22;2313;48.552;9.370;2022-12-18T00:30:11;-10.80;99.90
4602;DHT22;2313;48.552;9.370;2022-12-18T00:32:37;-10.90;99.90
4602;DHT22;2313;48.552;9.370;2022-12-18T00:35:04;-11.00;99.90
4602;DHT22;2313;48.552;9.370;2022-12-18T00:37:30;-11.10;99.90
4602;DHT22;2313;48.552;9.370;2022-12-18T00:39:55;-11.00;99.90
4602;DHT22;2313;48.552;9.370;2022-12-18T00:42:21;-11.00;99.90
4602;DHT22;2313;48.552;9.370;2022-12-18T00:45:05;-10.90;99.90
4602;DHT22;2313;48.552;9.370;2022-12-18T00:47:31;-10.90;99.90
4602;DHT22;2313;48.552;9.370;2022-12-18T00:49:57;-11.00;99.90
4602;DHT22;2313;48.552;9.370;2022-12-18T00:52:22;-10.90;99.90
4602;DHT22;2313;48.552;9.370;2022-12-18T00:54:48;-11.00;99.90
4602;DHT22;2313;48.552;9.370;2022-12-18T00:57:13;-11.00;99.90
4602;DHT22;2313;48.552;9.370;2022-12-18T00:59:39;-11.00;99.90
4602;DHT22;2313;48.552;9.370;2022-12-18T01:02:05;-10.90;99.90
4602;DHT22;2313;48.552;9.370;2022-12-18T01:04:33;-10.90;99.90
4602;DHT22;2313;48.552;9.370;2022-12-18T01:06:59;-10.90;99.90
4602;DHT22;2313;48.552;9.370;2022-12-18T01:09:25;-11.00;99.90
4602;DHT22;2313;48.552;9.370;2022-12-18T01:11:51;-11.00;99.90
4602;DHT22;2313;48.552;9.370;2022-12-18T01:14:17;-11.00;99.90
4602;DHT22;2313;48.552;9.370;2022-12-18T01:16:42;-11.00;99.90
4602;DHT22;2313;48.552;9.370;2022-12-18T01:19:08;-11.00;99.90
4602;DHT22;2313;48.552;9.370;2022-12-18T01:21:34;-11.00;99.90
4602;DHT22;2313;48.552;9.370;2022-12-18T01:23:59;-11.00;99.90
4602;DHT22;2313;48.552;9.370;2022-12-18T01:26:26;-11.00;99.90
4602;DHT22;2313;48.552;9.370;2022-12-18T01:28:54;-11.10;99.90
4602;DHT22;2313;48.552;9.370;2022-12-18T01:34:01;-11.10;99.90
4602;DHT22;2313;48.552;9.370;2022-12-18T01:36:29;-11.10;99.90
4602;DHT22;2313;48.552;9.370;2022-12-18T01:38:55;-11.10;99.90
4602;DHT22;2313;48.552;9.370;2022-12-18T01:41:26;-11.10;99.90
4602;DHT22;2313;48.552;9.370;2022-12-18T01:43:55;-11.10;99.90
4602;DHT22;2313;48.552;9.370;2022-12-18T01:46:26;-11.10;99.90
4602;DHT22;2313;48.552;9.370;2022-12-18T01:49:00;-11.10;99.90
4602;DHT22;2313;48.552;9.370;2022-12-18T01:51:28;-11.10;99.90
4602;DHT22;2313;48.552;9.370;2022-12-18T01:53:55;-11.10;99.90
4602;DHT22;2313;48.552;9.370;2022-12-18T01:56:21;-11.20;99.90
4602;DHT22;2313;48.552;9.370;2022-12-18T01:58:58;-11.20;99.90
4602;DHT22;2313;48.552;9.370;2022-12-18T02:01:25;-11.20;99.90
4602;DHT22;2313;48.552;9.370;2022-12-18T02:03:51;-11.20;99.90
4602;DHT22;2313;48.552;9.370;2022-12-18T02:06:27;-11.20;99.90
4602;DHT22;2313;48.552;9.370;2022-12-18T02:09:15;-11.20;99.90
4602;DHT22;2313;48.552;9.370;2022-12-18T02:11:53;-11.20;99.90
4602;DHT22;2313;48.552;9.370;2022-12-18T02:17:11;-11.20;99.90
4602;DHT22;2313;48.552;9.370;2022-12-18T02:23:04;-11.00;99.90
4602;DHT22;2313;48.552;9.370;2022-12-18T02:28:28;-10.80;99.90
4602;DHT22;2313;48.552;9.370;2022-12-18T02:30:58;-10.80;99.90
4602;DHT22;2313;48.552;9.370;2022-12-18T02:33:27;-10.80;99.90
4602;DHT22;2313;48.552;9.370;2022-12-18T02:35:54;-10.80;99.90
4602;DHT22;2313;48.552;9.370;2022-12-18T02:38:22;-10.80;99.90
4602;DHT22;2313;48.552;9.370;2022-12-18T02:40:49;-10.80;99.90
4602;DHT22;2313;48.552;9.370;2022-12-18T02:43:15;-10.80;99.90
4602;DHT22;2313;48.552;9.370;2022-12-18T02:45:58;-10.70;99.90
4602;DHT22;2313;48.552;9.370;2022-12-18T02:48:32;-10.80;99.90
4602;DHT22;2313;48.552;9.370;2022-12-18T02:51:25;-10.80;99.90
4602;DHT22;2313;48.552;9.370;2022-12-18T02:56:58;-10.80;99.90
4602;DHT22;2313;48.552;9.370;2022-12-18T02:59:35;-11.00;99.90
4602;DHT22;2313;48.552;9.370;2022-12-18T03:04:58;-10.90;99.90
4602;DHT22;2313;48.552;9.370;2022-12-18T03:07:35;-10.80;99.90
4602;DHT22;2313;48.552;9.370;2022-12-18T03:10:03;-10.90;99.90
4602;DHT22;2313;48.552;9.370;2022-12-18T03:12:36;-10.90;99.90
4602;DHT22;2313;48.552;9.370;2022-12-18T03:15:38;-10.80;99.90
4602;DHT22;2313;48.552;9.370;2022-12-18T03:18:21;-10.80;99.90
4602;DHT22;2313;48.552;9.370;2022-12-18T03:20:48;-10.80;99.90
4602;DHT22;2313;48.552;9.370;2022-12-18T03:23:21;-10.80;99.90
4602;DHT22;2313;48.552;9.370;2022-12-18T03:25:50;-10.80;99.90
4602;DHT22;2313;48.552;9.370;2022-12-18T03:28:21;-10.80;99.90
4602;DHT22;2313;48.552;9.370;2022-12-18T03:30:53;-10.70;99.90
4602;DHT22;2313;48.552;9.370;2022-12-18T03:33:25;-10.80;99.90
4602;DHT22;2313;48.552;9.370;2022-12-18T03:35:52;-10.80;99.90
4602;DHT22;2313;48.552;9.370;2022-12-18T03:38:18;-10.70;99.90
4602;DHT22;2313;48.552;9.370;2022-12-18T03:43:52;-10.70;99.90
4602;DHT22;2313;48.552;9.370;2022-12-18T03:49:34;-10.70;99.90
4602;DHT22;2313;48.552;9.370;2022-12-18T03:52:06;-10.70;99.90
4602;DHT22;2313;48.552;9.370;2022-12-18T03:54:34;-10.70;99.90
4602;DHT22;2313;48.552;9.370;2022-12-18T03:57:11;-10.70;99.90
4602;DHT22;2313;48.552;9.370;2022-12-18T03:59:38;-10.60;99.90
4602;DHT22;2313;48.552;9.370;2022-12-18T04:02:06;-10.60;99.90
4602;DHT22;2313;48.552;9.370;2022-12-18T04:04:34;-10.60;99.90
4602;DHT22;2313;48.552;9.370;2022-12-18T04:07:01;-10.60;99.90
4602;DHT22;2313;48.552;9.370;2022-12-18T04:09:28;-10.60;99.90
4602;DHT22;2313;48.552;9.370;2022-12-18T04:11:55;-10.60;99.90
4602;DHT22;2313;48.552;9.370;2022-12-18T04:14:20;-10.60;99.90
4602;DHT22;2313;48.552;9.370;2022-12-18T04:16:46;-10.50;99.90
4602;DHT22;2313;48.552;9.370;2022-12-18T04:19:12;-10.50;99.90
4602;DHT22;2313;48.552;9.370;2022-12-18T04:21:38;-10.50;99.90
4602;DHT22;2313;48.552;9.370;2022-12-18T04:24:03;-10.50;99.90
4602;DHT22;2313;48.552;9.370;2022-12-18T04:26:29;-10.50;99.90
4602;DHT22;2313;48.552;9.370;2022-12-18T04:28:54;-10.50;99.90
4602;DHT22;2313;48.552;9.370;2022-12-18T04:31:20;-10.50;99.90
4602;DHT22;2313;48.552;9.370;2022-12-18T04:33:46;-10.50;99.90
4602;DHT22;2313;48.552;9.370;2022-12-18T04:36:11;-10.50;99.90
4602;DHT22;2313;48.552;9.370;2022-12-18T04:38:38;-10.60;99.90
4602;DHT22;2313;48.552;9.370;2022-12-18T04:41:03;-10.60;99.90
4602;DHT22;2313;48.552;9.370;2022-12-18T04:43:29;-10.60;99.90
4602;DHT22;2313;48.552;9.370;2022-12-18T04:46:02;-10.70;99.90
4602;DHT22;2313;48.552;9.370;2022-12-18T04:48:28;-10.80;99.90
4602;DHT22;2313;48.552;9.370;2022-12-18T04:50:53;-10.80;99.90
4602;DHT22;2313;48.552;9.370;2022-12-18T04:53:19;-10.80;99.90
4602;DHT22;2313;48.552;9.370;2022-12-18T04:55:44;-10.80;99.90
4602;DHT22;2313;48.552;9.370;2022-12-18T04:58:10;-10.80;99.90
4602;DHT22;2313;48.552;9.370;2022-12-18T05:00:36;-10.70;99.90
4602;DHT22;2313;48.552;9.370;2022-12-18T05:03:01;-10.70;99.90
4602;DHT22;2313;48.552;9.370;2022-12-18T05:05:27;-10.80;99.90
4602;DHT22;2313;48.552;9.370;2022-12-18T05:07:53;-10.80;99.90
4602;DHT22;2313;48.552;9.370;2022-12-18T05:10:18;-10.80;99.90
4602;DHT22;2313;48.552;9.370;2022-12-18T05:12:44;-10.90;99.90
4602;DHT22;2313;48.552;9.370;2022-12-18T05:15:32;-10.80;99.90
4602;DHT22;2313;48.552;9.370;2022-12-18T05:17:58;-10.80;99.90
4602;DHT22;2313;48.552;9.370;2022-12-18T05:20:24;-10.80;99.90
4602;DHT22;2313;48.552;9.370;2022-12-18T05:22:51;-10.80;99.90
4602;DHT22;2313;48.552;9.370;2022-12-18T05:25:16;-10.70;99.90
4602;DHT22;2313;48.552;9.370;2022-12-18T05:27:42;-10.70;99.90
4602;DHT22;2313;48.552;9.370;2022-12-18T05:30:09;-10.70;99.90
4602;DHT22;2313;48.552;9.370;2022-12-18T05:32:35;-10.60;99.90
4602;DHT22;2313;48.552;9.370;2022-12-18T05:35:00;-10.60;99.90
4602;DHT22;2313;48.552;9.370;2022-12-18T05:37:26;-10.60;99.90
4602;DHT22;2313;48.552;9.370;2022-12-18T05:39:52;-10.60;99.90
4602;DHT22;2313;48.552;9.370;2022-12-18T05:42:17;-10.60;99.90
4602;DHT22;2313;48.552;9.370;2022-12-18T05:44:43;-10.50;99.90
4602;DHT22;2313;48.552;9.370;2022-12-18T05:47:09;-10.50;99.90
4602;DHT22;2313;48.552;9.370;2022-12-18T05:49:34;-10.50;99.90
4602;DHT22;2313;48.552;9.370;2022-12-18T05:52:00;-10.50;99.90
4602;DHT22;2313;48.552;9.370;2022-12-18T05:54:29;-10.40;99.90
4602;DHT22;2313;48.552;9.370;2022-12-18T05:56:55;-10.50;99.90
4602;DHT22;2313;48.552;9.370;2022-12-18T05:59:20;-10.60;99.90
4602;DHT22;2313;48.552;9.370;2022-12-18T06:01:46;-10.60;99.90
4602;DHT22;2313;48.552;9.370;2022-12-18T06:04:12;-10.60;99.90
4602;DHT22;2313;48.552;9.370;2022-12-18T06:06:38;-10.50;99.90
4602;DHT22;2313;48.552;9.370;2022-12-18T06:09:04;-10.60;99.90
4602;DHT22;2313;48.552;9.370;2022-12-18T06:11:36;-10.60;99.90
4602;DHT22;2313;48.552;9.370;2022-12-18T06:14:03;-10.60;99.90
4602;DHT22;2313;48.552;9.370;2022-12-18T06:16:29;-10.70;99.90
4602;DHT22;2313;48.552;9.370;2022-12-18T06:19:00;-10.70;99.90
4602;DHT22;2313;48.552;9.370;2022-12-18T06:21:27;-10.80;99.90
4602;DHT22;2313;48.552;9.370;2022-12-18T06:23:52;-10.80;99.90
4602;DHT22;2313;48.552;9.370;2022-12-18T06:26:18;-10.80;99.90
4602;DHT22;2313;48.552;9.370;2022-12-18T06:28:43;-10.80;99.90
4602;DHT22;2313;48.552;9.370;2022-12-18T06:31:10;-10.80;99.90
4602;DHT22;2313;48.552;9.370;2022-12-18T06:33:36;-10.80;99.90
4602;DHT22;2313;48.552;9.370;2022-12-18T06:36:08;-10.80;99.90
4602;DHT22;2313;48.552;9.370;2022-12-18T06:38:37;-10.90;99.90
4602;DHT22;2313;48.552;9.370;2022-12-18T06:41:21;-10.90;99.90
4602;DHT22;2313;48.552;9.370;2022-12-18T06:43:47;-10.90;99.90
4602;DHT22;2313;48.552;9.370;2022-12-18T06:46:13;-11.00;99.90
4602;DHT22;2313;48.552;9.370;2022-12-18T06:48:38;-11.00;99.90
4602;DHT22;2313;48.552;9.370;2022-12-18T06:51:04;-11.00;99.90
4602;DHT22;2313;48.552;9.370;2022-12-18T06:53:31;-11.10;99.90
4602;DHT22;2313;48.552;9.370;2022-12-18T06:56:05;-11.10;99.90
4602;DHT22;2313;48.552;9.370;2022-12-18T06:58:31;-11.10;99.90
4602;DHT22;2313;48.552;9.370;2022-12-18T07:01:05;-11.10;99.90
4602;DHT22;2313;48.552;9.370;2022-12-18T07:03:31;-11.10;99.90
4602;DHT22;2313;48.552;9.370;2022-12-18T07:05:57;-11.10;99.90
4602;DHT22;2313;48.552;9.370;2022-12-18T07:08:23;-11.10;99.90
4602;DHT22;2313;48.552;9.370;2022-12-18T07:10:48;-11.10;99.90
4602;DHT22;2313;48.552;9.370;2022-12-18T07:13:18;-11.00;99.90
4602;DHT22;2313;48.552;9.370;2022-12-18T07:15:44;-11.00;99.90
4602;DHT22;2313;48.552;9.370;2022-12-18T07:18:10;-11.10;99.90
4602;DHT22;2313;48.552;9.370;2022-12-18T07:20:35;-11.00;99.90
4602;DHT22;2313;48.552;9.370;2022-12-18T07:23:04;-10.90;99.90
4602;DHT22;2313;48.552;9.370;2022-12-18T07:25:34;-11.00;99.90
4602;DHT22;2313;48.552;9.370;2022-12-18T07:28:00;-11.00;99.90
4602;DHT22;2313;48.552;9.370;2022-12-18T07:30:25;-11.00;99.90
4602;DHT22;2313;48.552;9.370;2022-12-18T07:32:51;-11.00;99.90
4602;DHT22;2313;48.552;9.370;2022-12-18T07:35:17;-11.00;99.90
4602;DHT22;2313;48.552;9.370;2022-12-18T07:37:42;-11.00;99.90
4602;DHT22;2313;48.552;9.370;2022-12-18T07:40:08;-10.90;99.90
4602;DHT22;2313;48.552;9.370;2022-12-18T07:42:34;-10.90;99.90
4602;DHT22;2313;48.552;9.370;2022-12-18T07:45:01;-10.90;99.90
4602;DHT22;2313;48.552;9.370;2022-12-18T07:47:28;-10.90;99.90
4602;DHT22;2313;48.552;9.370;2022-12-18T07:49:56;-10.80;99.90
4602;DHT22;2313;48.552;9.370;2022-12-18T07:52:22;-10.80;99.90
4602;DHT22;2313;48.552;9.370;2022-12-18T07:54:47;-10.70;99.90
4602;DHT22;2313;48.552;9.370;2022-12-18T07:57:16;-10.70;99.90
4602;DHT22;2313;48.552;9.370;2022-12-18T07:59:42;-10.60;99.90
4602;DHT22;2313;48.552;9.370;2022-12-18T08:02:08;-10.50;99.90
4602;DHT22;2313;48.552;9.370;2022-12-18T08:04:33;-10.40;99.90
4602;DHT22;2313;48.552;9.370;2022-12-18T08:07:02;-10.40;99.90
4602;DHT22;2313;48.552;9.370;2022-12-18T08:09:28;-10.30;99.90
4602;DHT22;2313;48.552;9.370;2022-12-18T08:11:53;-10.40;99.90
4602;DHT22;2313;48.552;9.370;2022-12-18T08:14:19;-10.30;99.90
4602;DHT22;2313;48.552;9.370;2022-12-18T08:16:45;-10.20;99.90
4602;DHT22;2313;48.552;9.370;2022-12-18T08:19:12;-10.00;99.90
4602;DHT22;2313;48.552;9.370;2022-12-18T08:21:37;-9.60;99.90
4602;DHT22;2313;48.552;9.370;2022-12-18T08:24:06;-9.00;99.90
4602;DHT22;2313;48.552;9.370;2022-12-18T08:26:32;-8.40;99.90
4602;DHT22;2313;48.552;9.370;2022-12-18T08:28:59;-7.90;99.90
4602;DHT22;2313;48.552;9.370;2022-12-18T08:31:26;-7.70;99.90
4602;DHT22;2313;48.552;9.370;2022-12-18T08:33:52;-7.80;99.90
4602;DHT22;2313;48.552;9.370;2022-12-18T08:36:19;-7.70;99.90
4602;DHT22;2313;48.552;9.370;2022-12-18T08:38:47;-7.60;99.90
4602;DHT22;2313;48.552;9.370;2022-12-18T08:41:17;-7.40;99.90
4602;DHT22;2313;48.552;9.370;2022-12-18T08:43:42;-6.60;99.90
4602;DHT22;2313;48.552;9.370;2022-12-18T08:46:32;-5.60;99.90
4602;DHT22;2313;48.552;9.370;2022-12-18T08:48:58;-4.80;99.90
4602;DHT22;2313;48.552;9.370;2022-12-18T08:51:23;-4.50;99.90
4602;DHT22;2313;48.552;9.370;2022-12-18T08:53:49;-4.30;99.90
4602;DHT22;2313;48.552;9.370;2022-12-18T08:56:15;-4.20;99.90
4602;DHT22;2313;48.552;9.370;2022-12-18T08:58:41;-3.90;99.90
4602;DHT22;2313;48.552;9.370;2022-12-18T09:01:09;-3.80;99.90
4602;DHT22;2313;48.552;9.370;2022-12-18T09:03:35;-3.90;99.90
4602;DHT22;2313;48.552;9.370;2022-12-18T09:06:01;-4.10;99.90
4602;DHT22;2313;48.552;9.370;2022-12-18T09:08:27;-4.00;99.90
4602;DHT22;2313;48.552;9.370;2022-12-18T09:10:53;-4.20;99.90
4602;DHT22;2313;48.552;9.370;2022-12-18T09:13:19;-4.10;99.90
4602;DHT22;2313;48.552;9.370;2022-12-18T09:15:47;-4.00;99.90
4602;DHT22;2313;48.552;9.370;2022-12-18T09:18:15;-3.80;99.90
4602;DHT22;2313;48.552;9.370;2022-12-18T09:20:41;-3.80;99.90
4602;DHT22;2313;48.552;9.370;2022-12-18T09:23:07;-3.70;99.90
4602;DHT22;2313;48.552;9.370;2022-12-18T09:25:33;-3.50;99.90
4602;DHT22;2313;48.552;9.370;2022-12-18T09:28:14;-3.40;99.90
4602;DHT22;2313;48.552;9.370;2022-12-18T09:30:48;-3.20;99.90
4602;DHT22;2313;48.552;9.370;2022-12-18T09:33:14;-2.40;99.90
4602;DHT22;2313;48.552;9.370;2022-12-18T09:35:41;-1.70;99.90
4602;DHT22;2313;48.552;9.370;2022-12-18T09:38:18;-1.30;99.90
4602;DHT22;2313;48.552;9.370;2022-12-18T09:40:48;-1.10;99.90
4602;DHT22;2313;48.552;9.370;2022-12-18T09:43:30;-0.40;99.90
4602;DHT22;2313;48.552;9.370;2022-12-18T09:46:03;0.50;99.90
4602;DHT22;2313;48.552;9.370;2022-12-18T09:48:34;0.90;99.90
4602;DHT22;2313;48.552;9.370;2022-12-18T09:51:05;0.90;99.90
4602;DHT22;2313;48.552;9.370;2022-12-18T09:53:35;1.30;99.90
4602;DHT22;2313;48.552;9.370;2022-12-18T09:56:03;2.00;99.90
4602;DHT22;2313;48.552;9.370;2022-12-18T10:01:21;1.80;99.30
4602;DHT22;2313;48.552;9.370;2022-12-18T10:03:48;1.60;98.40
4602;DHT22;2313;48.552;9.370;2022-12-18T10:06:21;2.70;97.20
4602;DHT22;2313;48.552;9.370;2022-12-18T10:14:42;3.40;96.70
4602;DHT22;2313;48.552;9.370;2022-12-18T10:17:22;4.50;94.20
4602;DHT22;2313;48.552;9.370;2022-12-18T10:19:56;4.10;90.00
4602;DHT22;2313;48.552;9.370;2022-12-18T10:25:28;4.50;90.40
4602;DHT22;2313;48.552;9.370;2022-12-18T10:28:09;4.50;90.10
4602;DHT22;2313;48.552;9.370;2022-12-18T10:30:36;5.10;90.70
4602;DHT22;2313;48.552;9.370;2022-12-18T10:33:03;5.10;84.50
4602;DHT22;2313;48.552;9.370;2022-12-18T10:35:29;5.90;87.50
4602;DHT22;2313;48.552;9.370;2022-12-18T10:38:04;5.90;85.60
4602;DHT22;2313;48.552;9.370;2022-12-18T10:40:30;6.20;83.30
4602;DHT22;2313;48.552;9.370;2022-12-18T10:43:11;6.20;84.10
4602;DHT22;2313;48.552;9.370;2022-12-18T10:45:37;5.80;80.70
4602;DHT22;2313;48.552;9.370;2022-12-18T10:48:04;5.50;79.60
4602;DHT22;2313;48.552;9.370;2022-12-18T10:50:35;5.30;84.40
4602;DHT22;2313;48.552;9.370;2022-12-18T10:53:03;5.70;81.70
4602;DHT22;2313;48.552;9.370;2022-12-18T10:55:37;5.40;83.90
4602;DHT22;2313;48.552;9.370;2022-12-18T10:58:29;5.30;80.60
4602;DHT22;2313;48.552;9.370;2022-12-18T11:01:09;5.20;81.60
4602;DHT22;2313;48.552;9.370;2022-12-18T11:03:44;4.90;81.50
4602;DHT22;2313;48.552;9.370;2022-12-18T11:08:37;4.90;81.90
4602;DHT22;2313;48.552;9.370;2022-12-18T11:11:06;4.80;83.30
4602;DHT22;2313;48.552;9.370;2022-12-18T11:13:32;4.80;81.70
4602;DHT22;2313;48.552;9.370;2022-12-18T11:15:59;4.50;83.40
4602;DHT22;2313;48.552;9.370;2022-12-18T11:18:35;4.50;85.90
4602;DHT22;2313;48.552;9.370;2022-12-18T11:21:11;4.50;86.80
4602;DHT22;2313;48.552;9.370;2022-12-18T11:23:47;4.10;85.10
4602;DHT22;2313;48.552;9.370;2022-12-18T11:26:14;3.90;87.60
4602;DHT22;2313;48.552;9.370;2022-12-18T11:29:09;3.60;86.90
4602;DHT22;2313;48.552;9.370;2022-12-18T11:31:33;3.10;87.80
4602;DHT22;2313;48.552;9.370;2022-12-18T11:34:00;2.90;90.20
4602;DHT22;2313;48.552;9.370;2022-12-18T11:36:32;2.40;90.60
4602;DHT22;2313;48.552;9.370;2022-12-18T11:39:02;2.10;92.00
4602;DHT22;2313;48.552;9.370;2022-12-18T11:41:43;2.00;93.20
4602;DHT22;2313;48.552;9.370;2022-12-18T11:44:55;1.90;93.60
4602;DHT22;2313;48.552;9.370;2022-12-18T11:50:12;1.60;95.80
4602;DHT22;2313;48.552;9.370;2022-12-18T11:52:40;1.40;95.30
4602;DHT22;2313;48.552;9.370;2022-12-18T12:01:02;1.10;97.90
4602;DHT22;2313;48.552;9.370;2022-12-18T12:17:38;0.30;98.60
4602;DHT22;2313;48.552;9.370;2022-12-18T12:20:21;-0.20;98.60
4602;DHT22;2313;48.552;9.370;2022-12-18T12:23:01;-0.60;99.90
4602;DHT22;2313;48.552;9.370;2022-12-18T12:25:39;-0.60;99.90
4602;DHT22;2313;48.552;9.370;2022-12-18T12:31:11;-0.80;99.90
4602;DHT22;2313;48.552;9.370;2022-12-18T12:36:48;-0.80;99.90
4602;DHT22;2313;48.552;9.370;2022-12-18T12:39:20;-0.90;99.90
4602;DHT22;2313;48.552;9.370;2022-12-18T12:41:47;-1.00;99.90
4602;DHT22;2313;48.552;9.370;2022-12-18T12:44:35;-1.00;99.90
4602;DHT22;2313;48.552;9.370;2022-12-18T12:47:21;-1.20;99.90
4602;DHT22;2313;48.552;9.370;2022-12-18T12:49:48;-1.40;99.90
4602;DHT22;2313;48.552;9.370;2022-12-18T12:52:20;-1.60;99.90
4602;DHT22;2313;48.552;9.370;2022-12-18T12:54:48;-1.70;99.90
4602;DHT22;2313;48.552;9.370;2022-12-18T12:57:20;-1.60;99.90
4602;DHT22;2313;48.552;9.370;2022-12-18T13:00:05;-1.70;99.90
4602;DHT22;2313;48.552;9.370;2022-12-18T13:02:44;-1.90;99.90
4602;DHT22;2313;48.552;9.370;2022-12-18T13:05:46;-1.80;99.90
4602;DHT22;2313;48.552;9.370;2022-12-18T13:08:24;-1.80;99.90
4602;DHT22;2313;48.552;9.370;2022-12-18T13:10:51;-1.60;99.90
4602;DHT22;2313;48.552;9.370;2022-12-18T13:14:03;-1.50;99.90
4602;DHT22;2313;48.552;9.370;2022-12-18T13:16:29;-1.40;99.90
4602;DHT22;2313;48.552;9.370;2022-12-18T13:18:56;-1.50;99.90
4602;DHT22;2313;48.552;9.370;2022-12-18T13:21:33;-1.40;99.90
4602;DHT22;2313;48.552;9.370;2022-12-18T13:24:21;-1.40;99.90
4602;DHT22;2313;48.552;9.370;2022-12-18T13:26:48;-1.30;99.90
4602;DHT22;2313;48.552;9.370;2022-12-18T13:29:40;-1.10;99.90
4602;DHT22;2313;48.552;9.370;2022-12-18T13:32:20;-1.10;99.90
4602;DHT22;2313;48.552;9.370;2022-12-18T13:34:46;-1.10;99.90
4602;DHT22;2313;48.552;9.370;2022-12-18T13:37:40;-1.00;99.90
4602;DHT22;2313;48.552;9.370;2022-12-18T13:46:00;-1.10;99.90
4602;DHT22;2313;48.552;9.370;2022-12-18T13:48:28;-1.20;99.90
4602;DHT22;2313;48.552;9.370;2022-12-18T13:51:06;-1.30;99.90
4602;DHT22;2313;48.552;9.370;2022-12-18T13:53:43;-1.30;99.90
4602;DHT22;2313;48.552;9.370;2022-12-18T13:56:09;-1.20;99.90
4602;DHT22;2313;48.552;9.370;2022-12-18T13:58:40;-1.30;99.90
4602;DHT22;2313;48.552;9.370;2022-12-18T14:01:23;-1.30;99.90
4602;DHT22;2313;48.552;9.370;2022-12-18T14:03:49;-1.30;99.90
4602;DHT22;2313;48.552;9.370;2022-12-18T14:06:17;-1.40;99.90
4602;DHT22;2313;48.552;9.370;2022-12-18T14:08:43;-1.50;99.90
4602;DHT22;2313;48.552;9.370;2022-12-18T14:11:22;-1.50;99.90
4602;DHT22;2313;48.552;9.370;2022-12-18T14:13:48;-1.60;99.90
4602;DHT22;2313;48.552;9.370;2022-12-18T14:16:15;-1.70;99.90
4602;DHT22;2313;48.552;9.370;2022-12-18T14:18:48;-1.80;99.90
4602;DHT22;2313;48.552;9.370;2022-12-18T14:21:36;-1.80;99.90
4602;DHT22;2313;48.552;9.370;2022-12-18T14:26:30;-1.90;99.90
4602;DHT22;2313;48.552;9.370;2022-12-18T14:29:17;-2.00;99.90
4602;DHT22;2313;48.552;9.370;2022-12-18T14:31:43;-2.00;99.90
4602;DHT22;2313;48.552;9.370;2022-12-18T14:34:15;-2.00;99.90
4602;DHT22;2313;48.552;9.370;2022-12-18T14:36:41;-2.00;99.90
4602;DHT22;2313;48.552;9.370;2022-12-18T14:39:17;-2.00;99.90
4602;DHT22;2313;48.552;9.370;2022-12-18T14:41:43;-2.10;99.90
4602;DHT22;2313;48.552;9.370;2022-12-18T14:44:12;-2.10;99.90
4602;DHT22;2313;48.552;9.370;2022-12-18T14:46:49;-2.20;99.90
4602;DHT22;2313;48.552;9.370;2022-12-18T14:49:30;-2.20;99.90
4602;DHT22;2313;48.552;9.370;2022-12-18T14:51:57;-2.30;99.90
4602;DHT22;2313;48.552;9.370;2022-12-18T14:54:26;-2.40;99.90
4602;DHT22;2313;48.552;9.370;2022-12-18T14:57:52;-2.50;99.90
4602;DHT22;2313;48.552;9.370;2022-12-18T14:59:52;-2.50;99.90
4602;DHT22;2313;48.552;9.370;2022-12-18T15:02:28;-2.60;99.90
4602;DHT22;2313;48.552;9.370;2022-12-18T15:05:26;-2.60;99.90
4602;DHT22;2313;48.552;9.370;2022-12-18T15:07:52;-2.60;99.90
4602;DHT22;2313;48.552;9.370;2022-12-18T15:10:19;-2.60;99.90
4602;DHT22;2313;48.552;9.370;2022-12-18T15:20:45;-2.80;99.90
4602;DHT22;2313;48.552;9.370;2022-12-18T15:25:54;-3.00;99.90
4602;DHT22;2313;48.552;9.370;2022-12-18T15:28:24;-3.00;99.90
4602;DHT22;2313;48.552;9.370;2022-12-18T15:33:34;-3.00;99.90
4602;DHT22;2313;48.552;9.370;2022-12-18T15:36:02;-3.10;99.90
4602;DHT22;2313;48.552;9.370;2022-12-18T15:38:28;-3.20;99.90
4602;DHT22;2313;48.552;9.370;2022-12-18T15:40:54;-3.20;99.90
4602;DHT22;2313;48.552;9.370;2022-12-18T15:43:22;-3.10;99.90
4602;DHT22;2313;48.552;9.370;2022-12-18T15:48:26;-3.20;99.90
4602;DHT22;2313;48.552;9.370;2022-12-18T15:50:54;-3.30;99.90
4602;DHT22;2313;48.552;9.370;2022-12-18T15:53:23;-3.40;99.90
4602;DHT22;2313;48.552;9.370;2022-12-18T15:55:49;-3.50;99.90
4602;DHT22;2313;48.552;9.370;2022-12-18T15:58:33;-3.60;99.90
4602;DHT22;2313;48.552;9.370;2022-12-18T16:01:00;-3.70;99.90
4602;DHT22;2313;48.552;9.370;2022-12-18T16:03:26;-3.60;99.90
4602;DHT22;2313;48.552;9.370;2022-12-18T16:05:52;-3.70;99.90
4602;DHT22;2313;48.552;9.370;2022-12-18T16:08:18;-3.70;99.90
4602;DHT22;2313;48.552;9.370;2022-12-18T16:10:44;-3.60;99.90
4602;DHT22;2313;48.552;9.370;2022-12-18T16:13:11;-3.60;99.90
4602;DHT22;2313;48.552;9.370;2022-12-18T16:15:37;-3.60;99.90
4602;DHT22;2313;48.552;9.370;2022-12-18T16:18:03;-3.60;99.90
4602;DHT22;2313;48.552;9.370;2022-12-18T16:20:29;-3.60;99.90
4602;DHT22;2313;48.552;9.370;2022-12-18T16:22:54;-3.60;99.90
4602;DHT22;2313;48.552;9.370;2022-12-18T16:27:47;-3.60;99.90
4602;DHT22;2313;48.552;9.370;2022-12-18T16:30:23;-3.60;99.90
4602;DHT22;2313;48.552;9.370;2022-12-18T16:32:49;-3.60;99.90
4602;DHT22;2313;48.552;9.370;2022-12-18T16:35:16;-3.60;99.90
4602;DHT22;2313;48.552;9.370;2022-12-18T16:37:42;-3.70;99.90
4602;DHT22;2313;48.552;9.370;2022-12-18T16:40:10;-3.70;99.90
4602;DHT22;2313;48.552;9.370;2022-12-18T16:42:38;-3.70;99.90
4602;DHT22;2313;48.552;9.370;2022-12-18T16:45:06;-3.60;99.90
4602;DHT22;2313;48.552;9.370;2022-12-18T16:47:32;-3.80;99.90
4602;DHT22;2313;48.552;9.370;2022-12-18T16:49:58;-3.60;99.90
4602;DHT22;2313;48.552;9.370;2022-12-18T16:52:23;-3.60;99.90
4602;DHT22;2313;48.552;9.370;2022-12-18T16:54:49;-3.50;99.90
4602;DHT22;2313;48.552;9.370;2022-12-18T16:57:16;-3.50;99.90
4602;DHT22;2313;48.552;9.370;2022-12-18T16:59:42;-3.50;99.90
4602;DHT22;2313;48.552;9.370;2022-12-18T17:02:17;-3.60;99.90
4602;DHT22;2313;48.552;9.370;2022-12-18T17:04:43;-3.60;99.90
4602;DHT22;2313;48.552;9.370;2022-12-18T17:07:10;-3.50;99.90
4602;DHT22;2313;48.552;9.370;2022-12-18T17:09:36;-3.50;99.90
4602;DHT22;2313;48.552;9.370;2022-12-18T17:12:02;-3.50;99.90
4602;DHT22;2313;48.552;9.370;2022-12-18T17:14:27;-3.50;99.90
4602;DHT22;2313;48.552;9.370;2022-12-18T17:16:54;-3.50;99.90
4602;DHT22;2313;48.552;9.370;2022-12-18T17:19:19;-3.50;99.90
4602;DHT22;2313;48.552;9.370;2022-12-18T17:21:48;-3.50;99.90
4602;DHT22;2313;48.552;9.370;2022-12-18T17:24:14;-3.40;99.90
4602;DHT22;2313;48.552;9.370;2022-12-18T17:26:40;-3.40;99.90
4602;DHT22;2313;48.552;9.370;2022-12-18T17:29:06;-3.40;99.90
4602;DHT22;2313;48.552;9.370;2022-12-18T17:31:34;-3.50;99.90
4602;DHT22;2313;48.552;9.370;2022-12-18T17:34:03;-3.50;99.90
4602;DHT22;2313;48.552;9.370;2022-12-18T17:36:29;-3.50;99.90
4602;DHT22;2313;48.552;9.370;2022-12-18T17:38:59;-3.50;99.90
4602;DHT22;2313;48.552;9.370;2022-12-18T17:41:26;-3.40;99.90
4602;DHT22;2313;48.552;9.370;2022-12-18T17:43:53;-3.40;99.90